createdAt,value
2022-09-16T00:00:46.421Z,99468.66
2022-09-16T00:03:14.047Z,99456.78
2022-09-16T00:05:42.611Z,99466.50
2022-09-16T00:08:10.155Z,99461.25
2022-09-16T00:10:38.955Z,99459.09
2022-09-16T00:13:06.514Z,99459.41
2022-09-16T00:15:35.145Z,99462.72
2022-09-16T00:18:02.686Z,99459.91
2022-09-16T00:20:30.030Z,99455.13
2022-09-16T00:22:57.330Z,99457.78
2022-09-16T00:25:24.648Z,99465.03
2022-09-16T00:27:52.033Z,99455.94
2022-09-16T00:30:19.558Z,99455.94
2022-09-16T00:32:47.089Z,99463.53
2022-09-16T00:35:14.517Z,99463.22
2022-09-16T00:37:41.908Z,99457.09
2022-09-16T00:40:09.763Z,99455.44
2022-09-16T00:42:38.347Z,99444.91
2022-09-16T00:45:07.100Z,99446.53
2022-09-16T00:47:34.453Z,99453.94
2022-09-16T00:50:21.394Z,99457.75
2022-09-16T00:52:49.328Z,99443.06
2022-09-16T00:55:18.140Z,99437.13
2022-09-16T00:57:45.487Z,99436.66
2022-09-16T01:00:13.908Z,99432.19
2022-09-16T01:02:42.562Z,99425.94
2022-09-16T01:05:12.421Z,99433.50
2022-09-16T01:07:47.805Z,99441.25
2022-09-16T01:10:16.031Z,99435.78
2022-09-16T01:12:46.845Z,99435.28
2022-09-16T01:15:14.776Z,99444.06
2022-09-16T01:17:46.723Z,99430.56
2022-09-16T01:20:17.040Z,99443.91
2022-09-16T01:22:47.289Z,99432.00
2022-09-16T01:25:26.736Z,99438.59
2022-09-16T01:28:16.923Z,99448.16
2022-09-16T01:30:49.707Z,99433.50
2022-09-16T01:33:20.401Z,99447.34
2022-09-16T01:35:48.035Z,99444.69
2022-09-16T01:38:38.394Z,99446.50
2022-09-16T01:41:06.199Z,99456.41
2022-09-16T01:43:55.030Z,99446.81
2022-09-16T01:46:41.224Z,99452.75
2022-09-16T01:49:08.660Z,99456.88
2022-09-16T01:51:48.038Z,99444.31
2022-09-16T01:54:15.376Z,99437.25
2022-09-16T01:56:44.802Z,99434.75
2022-09-16T01:59:17.080Z,99433.78
2022-09-16T02:01:46.455Z,99430.78
2022-09-16T02:04:19.563Z,99431.78
2022-09-16T02:06:46.969Z,99440.06
2022-09-16T02:09:19.190Z,99455.22
2022-09-16T02:11:46.974Z,99463.78
2022-09-16T02:14:15.664Z,99470.50
2022-09-16T02:16:54.251Z,99470.00
2022-09-16T02:19:42.065Z,99476.63
2022-09-16T02:22:11.819Z,99468.38
2022-09-16T02:24:41.369Z,99466.72
2022-09-16T02:27:09.809Z,99464.59
2022-09-16T02:29:38.212Z,99460.84
2022-09-16T02:32:06.195Z,99452.44
2022-09-16T02:34:41.004Z,99446.50
2022-09-16T02:37:28.648Z,99430.84
2022-09-16T02:39:57.962Z,99432.13
2022-09-16T02:42:25.429Z,99433.66
2022-09-16T02:44:53.129Z,99446.03
2022-09-16T02:47:28.164Z,99452.09
2022-09-16T02:50:03.782Z,99454.09
2022-09-16T02:53:06.886Z,99446.38
2022-09-16T02:55:36.265Z,99453.28
2022-09-16T02:58:04.755Z,99435.47
2022-09-16T03:00:33.524Z,99442.75
2022-09-16T03:03:01.749Z,99440.59
2022-09-16T03:05:29.714Z,99440.91
2022-09-16T03:07:57.514Z,99444.88
2022-09-16T03:10:25.875Z,99445.69
2022-09-16T03:12:53.298Z,99456.25
2022-09-16T03:15:34.634Z,99452.47
2022-09-16T03:18:17.473Z,99457.72
2022-09-16T03:20:52.231Z,99459.88
2022-09-16T03:23:19.612Z,99444.19
2022-09-16T03:25:51.587Z,99448.69
2022-09-16T03:28:24.330Z,99446.84
2022-09-16T03:30:54.510Z,99446.84
2022-09-16T03:33:24.524Z,99439.56
2022-09-16T03:35:51.970Z,99443.53
2022-09-16T03:38:19.437Z,99448.81
2022-09-16T03:40:47.016Z,99457.53
2022-09-16T03:43:16.155Z,99461.78
2022-09-16T03:45:43.728Z,99456.88
2022-09-16T03:48:11.779Z,99459.69
2022-09-16T03:50:39.343Z,99463.19
2022-09-16T03:53:06.862Z,99462.84
2022-09-16T03:55:34.374Z,99456.91
2022-09-16T03:58:01.958Z,99458.69
2022-09-16T04:00:29.460Z,99459.19
2022-09-16T04:02:58.901Z,99460.88
2022-09-16T04:05:26.632Z,99454.75
2022-09-16T04:07:53.942Z,99456.25
2022-09-16T04:10:21.258Z,99456.75
2022-09-16T04:12:48.784Z,99457.56
2022-09-16T04:15:16.098Z,99457.72
2022-09-16T04:17:43.798Z,99456.41
2022-09-16T04:20:11.243Z,99463.34
2022-09-16T04:22:38.728Z,99467.00
2022-09-16T04:25:06.510Z,99451.31
2022-09-16T04:27:34.385Z,99451.81
2022-09-16T04:30:01.797Z,99448.84
2022-09-16T04:32:29.568Z,99454.13
2022-09-16T04:34:56.984Z,99448.22
2022-09-16T04:37:24.469Z,99450.34
2022-09-16T04:39:51.896Z,99444.09
2022-09-16T04:42:19.204Z,99435.50
2022-09-16T04:44:46.553Z,99437.84
2022-09-16T04:47:14.203Z,99439.78
2022-09-16T04:49:41.616Z,99434.19
2022-09-16T04:52:08.975Z,99438.63
2022-09-16T04:54:36.875Z,99434.84
2022-09-16T04:57:04.292Z,99432.53
2022-09-16T04:59:32.055Z,99436.84
2022-09-16T05:02:00.160Z,99440.94
2022-09-16T05:04:27.586Z,99442.44
2022-09-16T05:06:55.764Z,99443.94
2022-09-16T05:09:23.175Z,99453.63
2022-09-16T05:11:50.583Z,99445.03
2022-09-16T05:14:18.401Z,99448.63
2022-09-16T05:16:45.756Z,99457.81
2022-09-16T05:19:13.583Z,99448.91
2022-09-16T05:21:41.028Z,99443.34
2022-09-16T05:24:08.894Z,99444.19
2022-09-16T05:26:37.477Z,99437.16
2022-09-16T05:29:06.005Z,99445.00
2022-09-16T05:31:34.862Z,99435.88
2022-09-16T05:34:06.302Z,99437.22
2022-09-16T05:36:34.961Z,99422.50
2022-09-16T05:39:22.249Z,99421.00
2022-09-16T05:41:50.112Z,99424.28
2022-09-16T05:44:17.610Z,99430.72
2022-09-16T05:46:45.079Z,99433.63
2022-09-16T05:49:12.656Z,99450.06
2022-09-16T05:51:41.468Z,99453.56
2022-09-16T05:54:08.919Z,99444.09
2022-09-16T05:56:36.280Z,99436.00
2022-09-16T05:59:03.587Z,99432.53
2022-09-16T06:01:32.144Z,99431.31
2022-09-16T06:04:04.123Z,99425.03
2022-09-16T06:06:32.596Z,99415.25
2022-09-16T06:09:01.569Z,99423.34
2022-09-16T06:11:29.136Z,99421.69
2022-09-16T06:13:57.375Z,99410.19
2022-09-16T06:16:27.719Z,99408.00
2022-09-16T06:18:55.685Z,99419.66
2022-09-16T06:21:23.497Z,99414.28
2022-09-16T06:23:51.018Z,99421.13
2022-09-16T06:26:19.684Z,99436.81
2022-09-16T06:28:47.294Z,99409.13
2022-09-16T06:31:15.724Z,99425.69
2022-09-16T06:33:43.419Z,99425.06
2022-09-16T06:36:11.779Z,99415.91
2022-09-16T06:38:39.967Z,99408.97
2022-09-16T06:41:08.342Z,99404.78
2022-09-16T06:43:35.766Z,99393.25
2022-09-16T06:46:10.324Z,99398.91
2022-09-16T06:48:37.819Z,99399.72
2022-09-16T06:51:06.294Z,99415.91
2022-09-16T06:53:35.104Z,99420.63
2022-09-16T06:56:03.084Z,99440.94
2022-09-16T06:58:35.203Z,99427.22
2022-09-16T07:01:09.079Z,99423.91
2022-09-16T07:03:40.481Z,99421.09
2022-09-16T07:06:08.208Z,99424.34
2022-09-16T07:08:36.400Z,99419.19
2022-09-16T07:11:08.219Z,99433.44
2022-09-16T07:13:38.162Z,99426.84
2022-09-16T07:16:13.394Z,99417.91
2022-09-16T07:18:46.603Z,99416.63
2022-09-16T07:21:18.710Z,99409.94
2022-09-16T07:23:46.417Z,99403.13
2022-09-16T07:26:21.019Z,99395.50
2022-09-16T07:28:49.639Z,99393.09
2022-09-16T07:31:17.973Z,99398.91
2022-09-16T07:33:46.365Z,99395.56
2022-09-16T07:36:14.988Z,99398.06
2022-09-16T07:38:42.779Z,99405.25
2022-09-16T07:41:11.537Z,99403.41
2022-09-16T07:43:40.409Z,99409.09
2022-09-16T07:46:08.420Z,99401.88
2022-09-16T07:48:35.835Z,99399.09
2022-09-16T07:51:23.572Z,99393.84
2022-09-16T07:53:54.917Z,99391.78
2022-09-16T07:56:23.708Z,99388.19
2022-09-16T07:58:51.064Z,99387.28
2022-09-16T08:01:18.612Z,99383.22
2022-09-16T08:03:46.109Z,99389.59
2022-09-16T08:06:14.467Z,99386.44
2022-09-16T08:08:42.602Z,99385.81
2022-09-16T08:11:10.180Z,99385.22
2022-09-16T08:13:38.100Z,99384.41
2022-09-16T08:16:06.576Z,99374.66
2022-09-16T08:18:34.116Z,99370.78
2022-09-16T08:21:11.810Z,99365.88
2022-09-16T08:23:39.784Z,99365.94
2022-09-16T08:26:08.599Z,99377.09
2022-09-16T08:28:57.639Z,99359.22
2022-09-16T08:31:23.412Z,99372.00
2022-09-16T08:33:50.735Z,99359.81
2022-09-16T08:36:20.244Z,99363.97
2022-09-16T08:38:50.611Z,99359.50
2022-09-16T08:41:36.412Z,99351.38
2022-09-16T08:44:18.365Z,99357.22
2022-09-16T08:46:48.835Z,99349.34
2022-09-16T08:49:18.011Z,99347.75
2022-09-16T08:51:45.648Z,99355.13
2022-09-16T08:54:24.805Z,99358.03
2022-09-16T08:56:53.620Z,99362.41
2022-09-16T08:59:24.349Z,99359.69
2022-09-16T09:01:58.536Z,99363.88
2022-09-16T09:04:26.441Z,99367.66
2022-09-16T09:07:00.009Z,99362.56
2022-09-16T09:09:45.497Z,99366.19
2022-09-16T09:12:22.851Z,99364.34
2022-09-16T09:14:56.737Z,99340.19
2022-09-16T09:17:24.439Z,99351.00
2022-09-16T09:19:58.324Z,99360.09
2022-09-16T09:22:28.920Z,99357.47
2022-09-16T09:25:08.357Z,99365.72
2022-09-16T09:27:42.717Z,99362.59
2022-09-16T09:30:23.384Z,99365.41
2022-09-16T09:32:53.907Z,99364.25
2022-09-16T09:35:39.636Z,99365.63
2022-09-16T09:38:24.879Z,99358.84
2022-09-16T09:40:53.777Z,99363.78
2022-09-16T09:43:27.659Z,99361.44
2022-09-16T09:45:55.259Z,99365.34
2022-09-16T09:48:27.644Z,99364.13
2022-09-16T09:50:55.109Z,99359.84
2022-09-16T09:53:28.919Z,99355.75
2022-09-16T09:56:01.237Z,99359.75
2022-09-16T09:58:40.210Z,99351.66
2022-09-16T10:01:08.638Z,99352.56
2022-09-16T10:03:38.156Z,99358.34
2022-09-16T10:06:05.828Z,99363.16
2022-09-16T10:08:36.901Z,99359.19
2022-09-16T10:11:14.771Z,99371.50
2022-09-16T10:13:47.642Z,99371.09
2022-09-16T10:16:20.925Z,99372.50
2022-09-16T10:18:59.514Z,99374.88
2022-09-16T10:21:37.482Z,99369.38
2022-09-16T10:24:04.935Z,99369.97
2022-09-16T10:26:39.397Z,99370.88
2022-09-16T10:29:15.829Z,99374.25
2022-09-16T10:31:43.618Z,99376.66
2022-09-16T10:34:20.693Z,99375.56
2022-09-16T10:36:50.011Z,99368.25
2022-09-16T10:39:22.470Z,99368.22
2022-09-16T10:41:50.024Z,99371.53
2022-09-16T10:44:17.792Z,99373.66
2022-09-16T10:46:59.083Z,99369.44
2022-09-16T10:49:47.089Z,99366.81
2022-09-16T10:52:16.565Z,99368.06
2022-09-16T10:54:44.048Z,99368.63
2022-09-16T10:57:29.237Z,99368.84
2022-09-16T11:00:12.401Z,99376.25
2022-09-16T11:02:58.893Z,99363.72
2022-09-16T11:05:29.936Z,99363.91
2022-09-16T11:08:01.283Z,99364.31
2022-09-16T11:10:44.227Z,99359.31
2022-09-16T11:13:15.714Z,99359.34
2022-09-16T11:15:56.057Z,99362.69
2022-09-16T11:18:36.883Z,99364.19
2022-09-16T11:21:08.668Z,99369.25
2022-09-16T11:23:42.710Z,99367.03
2022-09-16T11:26:25.163Z,99368.91
2022-09-16T11:28:59.122Z,99371.53
2022-09-16T11:31:33.880Z,99368.66
2022-09-16T11:34:07.599Z,99360.47
2022-09-16T11:36:35.721Z,99368.78
2022-09-16T11:39:13.615Z,99374.69
2022-09-16T11:41:54.656Z,99372.59
2022-09-16T11:44:24.112Z,99376.84
2022-09-16T11:47:00.910Z,99373.53
2022-09-16T11:49:40.273Z,99371.66
2022-09-16T11:52:26.466Z,99372.97
2022-09-16T11:55:06.967Z,99368.47
2022-09-16T11:57:41.908Z,99372.47
2022-09-16T12:00:13.440Z,99367.97
2022-09-16T12:02:42.380Z,99369.03
2022-09-16T12:05:15.582Z,99362.81
2022-09-16T12:07:45.466Z,99357.09
2022-09-16T12:10:15.010Z,99364.50
2022-09-16T12:12:44.633Z,99368.78
2022-09-16T12:15:15.270Z,99372.78
2022-09-16T12:17:43.528Z,99376.09
2022-09-16T12:20:11.376Z,99360.78
2022-09-16T12:22:43.446Z,99372.75
2022-09-16T12:25:12.996Z,99376.81
2022-09-16T12:27:44.846Z,99372.72
2022-09-16T12:30:12.358Z,99376.78
2022-09-16T12:32:59.213Z,99376.72
2022-09-16T12:38:04.123Z,99373.16
2022-09-16T12:40:35.878Z,99376.72
2022-09-16T12:43:21.898Z,99372.69
2022-09-16T12:45:52.576Z,99374.13
2022-09-16T12:48:23.109Z,99366.94
2022-09-16T12:50:50.657Z,99374.81
2022-09-16T12:53:23.937Z,99374.19
2022-09-16T12:55:54.573Z,99379.06
2022-09-16T12:58:22.056Z,99382.81
2022-09-16T13:01:08.549Z,99385.09
2022-09-16T13:03:38.154Z,99383.56
2022-09-16T13:06:06.653Z,99388.25
2022-09-16T13:08:34.118Z,99392.09
2022-09-16T13:13:52.419Z,99388.13
2022-09-16T13:16:27.464Z,99389.81
2022-09-16T13:19:04.779Z,99390.81
2022-09-16T13:21:38.751Z,99390.13
2022-09-16T13:24:06.178Z,99387.28
2022-09-16T13:26:43.248Z,99381.53
2022-09-16T13:29:31.017Z,99380.91
2022-09-16T13:31:58.728Z,99385.44
2022-09-16T13:34:26.724Z,99392.06
2022-09-16T13:36:54.305Z,99386.88
2022-09-16T13:39:31.650Z,99384.31
2022-09-16T13:42:09.882Z,99386.63
2022-09-16T13:44:37.297Z,99386.44
2022-09-16T13:47:10.550Z,99388.78
2022-09-16T13:49:53.928Z,99400.47
2022-09-16T13:52:22.246Z,99403.00
2022-09-16T13:55:09.448Z,99411.91
2022-09-16T13:57:50.875Z,99408.66
2022-09-16T14:00:20.176Z,99410.00
2022-09-16T14:02:48.772Z,99414.84
2022-09-16T14:05:25.495Z,99408.00
2022-09-16T14:08:05.482Z,99415.75
2022-09-16T14:10:42.516Z,99403.16
2022-09-16T14:13:14.159Z,99418.19
2022-09-16T14:15:54.479Z,99412.75
2022-09-16T14:18:24.246Z,99412.31
2022-09-16T14:21:04.955Z,99416.28
2022-09-16T14:23:32.741Z,99407.81
2022-09-16T14:26:11.738Z,99413.94
2022-09-16T14:28:39.761Z,99410.41
2022-09-16T14:31:08.067Z,99421.69
2022-09-16T14:33:41.139Z,99431.06
2022-09-16T14:36:19.152Z,99428.25
2022-09-16T14:38:50.889Z,99424.06
2022-09-16T14:41:41.672Z,99436.13
2022-09-16T14:44:10.726Z,99430.25
2022-09-16T14:46:45.159Z,99431.41
2022-09-16T14:49:12.806Z,99437.16
2022-09-16T14:51:40.501Z,99439.00
2022-09-16T14:54:15.425Z,99448.56
2022-09-16T14:56:43.037Z,99449.06
2022-09-16T14:59:11.064Z,99453.81
2022-09-16T15:01:38.515Z,99455.34
2022-09-16T15:04:16.600Z,99463.41
2022-09-16T15:06:45.628Z,99467.13
2022-09-16T15:09:20.560Z,99464.94
2022-09-16T15:11:49.387Z,99466.75
2022-09-16T15:14:17.427Z,99466.56
2022-09-16T15:16:46.034Z,99470.38
2022-09-16T15:19:17.086Z,99469.94
2022-09-16T15:21:44.534Z,99474.94
2022-09-16T15:24:19.574Z,99477.69
2022-09-16T15:26:47.058Z,99479.00
2022-09-16T15:31:44.710Z,99483.44
2022-09-16T15:34:21.139Z,99483.72
2022-09-16T15:36:49.126Z,99485.13
2022-09-16T15:39:24.322Z,99494.13
2022-09-16T15:42:03.217Z,99502.34
2022-09-16T15:44:36.420Z,99496.50
2022-09-16T15:47:04.798Z,99510.31
2022-09-16T15:49:32.943Z,99514.38
2022-09-16T15:52:07.597Z,99514.91
2022-09-16T15:54:36.816Z,99521.34
2022-09-16T15:57:05.988Z,99517.00
2022-09-16T15:59:36.814Z,99532.59
2022-09-16T16:02:19.010Z,99535.63
2022-09-16T16:04:46.468Z,99547.38
2022-09-16T16:07:13.742Z,99554.31
2022-09-16T16:09:42.187Z,99560.72
2022-09-16T16:12:12.653Z,99568.75
2022-09-16T16:14:40.234Z,99567.75
2022-09-16T16:17:13.613Z,99579.03
2022-09-16T16:19:42.684Z,99587.91
2022-09-16T16:22:10.213Z,99586.44
2022-09-16T16:24:38.164Z,99597.09
2022-09-16T16:27:05.613Z,99590.94
2022-09-16T16:29:33.123Z,99590.75
2022-09-16T16:32:01.288Z,99592.00
2022-09-16T16:34:29.265Z,99596.59
2022-09-16T16:36:56.591Z,99604.22
2022-09-16T16:39:24.635Z,99601.22
2022-09-16T16:41:54.104Z,99616.44
2022-09-16T16:44:22.984Z,99614.94
2022-09-16T16:46:51.528Z,99611.66
2022-09-16T16:49:19.132Z,99624.72
2022-09-16T16:51:47.965Z,99625.22
2022-09-16T16:54:15.452Z,99614.13
2022-09-16T16:56:42.844Z,99622.22
2022-09-16T16:59:10.377Z,99622.72
2022-09-16T17:01:38.219Z,99631.63
2022-09-16T17:04:06.216Z,99625.38
2022-09-16T17:06:35.163Z,99615.13
2022-09-16T17:09:02.947Z,99617.44
2022-09-16T17:11:30.469Z,99624.66
2022-09-16T17:13:59.242Z,99631.91
2022-09-16T17:16:27.011Z,99627.97
2022-09-16T17:18:54.687Z,99620.03
2022-09-16T17:21:26.149Z,99623.44
2022-09-16T17:23:53.744Z,99627.06
2022-09-16T17:26:24.144Z,99623.41
2022-09-16T17:28:52.040Z,99631.91
2022-09-16T17:31:20.618Z,99626.78
2022-09-16T17:33:48.194Z,99628.81
2022-09-16T17:36:16.884Z,99618.16
2022-09-16T17:38:44.451Z,99613.69
2022-09-16T17:41:12.737Z,99617.16
2022-09-16T17:43:40.141Z,99608.91
2022-09-16T17:46:08.234Z,99609.09
2022-09-16T17:48:37.617Z,99607.09
2022-09-16T17:51:05.016Z,99612.56
2022-09-16T17:53:32.565Z,99614.97
2022-09-16T17:56:13.127Z,99611.47
2022-09-16T17:58:42.657Z,99620.81
2022-09-16T18:01:13.953Z,99632.06
2022-09-16T18:03:41.992Z,99632.84
2022-09-16T18:06:09.352Z,99642.44
2022-09-16T18:08:37.185Z,99656.41
2022-09-16T18:11:04.582Z,99657.22
2022-09-16T18:13:32.296Z,99659.16
2022-09-16T18:16:15.864Z,99661.53
2022-09-16T18:18:43.500Z,99661.28
2022-09-16T18:21:11.988Z,99648.97
2022-09-16T18:23:40.389Z,99651.03
2022-09-16T18:26:11.791Z,99649.94
2022-09-16T18:29:07.904Z,99654.97
2022-09-16T18:31:29.909Z,99649.06
2022-09-16T18:33:57.528Z,99657.50
2022-09-16T18:36:25.999Z,99651.09
2022-09-16T18:38:53.855Z,99649.06
2022-09-16T18:41:22.183Z,99643.31
2022-09-16T18:43:53.555Z,99650.97
2022-09-16T18:46:26.324Z,99640.28
2022-09-16T18:48:54.310Z,99648.84
2022-09-16T18:51:22.750Z,99645.75
2022-09-16T18:53:54.401Z,99643.72
2022-09-16T18:56:22.315Z,99645.00
2022-09-16T18:59:09.892Z,99655.50
2022-09-16T19:01:38.900Z,99653.22
2022-09-16T19:04:07.515Z,99649.59
2022-09-16T19:06:36.239Z,99657.69
2022-09-16T19:09:05.672Z,99665.81
2022-09-16T19:11:33.401Z,99662.44
2022-09-16T19:14:01.323Z,99662.84
2022-09-16T19:16:28.909Z,99669.25
2022-09-16T19:18:56.489Z,99677.06
2022-09-16T19:21:23.933Z,99670.81
2022-09-16T19:23:55.446Z,99678.06
2022-09-16T19:26:22.909Z,99682.53
2022-09-16T19:28:50.747Z,99686.78
2022-09-16T19:31:18.667Z,99699.25
2022-09-16T19:33:46.057Z,99703.34
2022-09-16T19:36:17.437Z,99707.84
2022-09-16T19:38:45.156Z,99705.69
2022-09-16T19:41:12.698Z,99710.66
2022-09-16T19:43:40.115Z,99716.78
2022-09-16T19:46:17.514Z,99717.88
2022-09-16T19:48:45.571Z,99719.41
2022-09-16T19:51:13.982Z,99722.84
2022-09-16T19:53:41.670Z,99727.50
2022-09-16T19:56:10.110Z,99732.19
2022-09-16T19:58:37.705Z,99733.00
2022-09-16T20:01:07.152Z,99731.94
2022-09-16T20:03:36.575Z,99739.50
2022-09-16T20:06:04.893Z,99729.59
2022-09-16T20:08:33.480Z,99733.31
2022-09-16T20:11:14.144Z,99742.47
2022-09-16T20:13:47.105Z,99749.00
2022-09-16T20:16:14.745Z,99754.06
2022-09-16T20:18:42.879Z,99761.13
2022-09-16T20:21:11.390Z,99771.91
2022-09-16T20:23:38.812Z,99774.22
2022-09-16T20:26:07.745Z,99762.06
2022-09-16T20:28:38.975Z,99765.06
2022-09-16T20:31:06.476Z,99768.69
2022-09-16T20:33:33.933Z,99779.56
2022-09-16T20:36:01.900Z,99769.84
2022-09-16T20:38:29.583Z,99767.13
2022-09-16T20:40:57.214Z,99764.47
2022-09-16T20:43:24.747Z,99764.03
2022-09-16T20:45:52.253Z,99771.00
2022-09-16T20:48:19.852Z,99767.25
2022-09-16T20:50:47.198Z,99757.09
2022-09-16T20:53:14.858Z,99755.56
2022-09-16T20:55:42.321Z,99747.66
2022-09-16T20:58:09.836Z,99741.63
2022-09-16T21:00:37.960Z,99754.19
2022-09-16T21:03:06.997Z,99760.81
2022-09-16T21:05:34.482Z,99753.78
2022-09-16T21:08:02.004Z,99742.41
2022-09-16T21:10:31.193Z,99756.91
2022-09-16T21:12:58.754Z,99752.84
2022-09-16T21:15:27.076Z,99758.31
2022-09-16T21:17:54.564Z,99763.63
2022-09-16T21:20:21.991Z,99773.75
2022-09-16T21:22:49.469Z,99770.06
2022-09-16T21:25:16.833Z,99773.88
2022-09-16T21:27:44.786Z,99778.94
2022-09-16T21:30:12.474Z,99782.69
2022-09-16T21:32:40.277Z,99776.66
2022-09-16T21:35:07.802Z,99777.09
2022-09-16T21:37:35.091Z,99771.06
2022-09-16T21:40:02.898Z,99774.13
2022-09-16T21:42:31.162Z,99775.28
2022-09-16T21:45:00.011Z,99788.84
2022-09-16T21:47:27.271Z,99789.47
2022-09-16T21:49:54.640Z,99792.06
2022-09-16T21:52:22.063Z,99787.81
2022-09-16T21:54:49.545Z,99788.00
2022-09-16T21:57:17.182Z,99785.72
2022-09-16T21:59:44.701Z,99788.47
2022-09-16T22:02:12.246Z,99784.38
2022-09-16T22:04:39.723Z,99792.66
2022-09-16T22:07:10.858Z,99793.56
2022-09-16T22:09:38.333Z,99788.72
2022-09-16T22:12:06.955Z,99790.56
2022-09-16T22:14:34.582Z,99788.88
2022-09-16T22:17:02.190Z,99800.00
2022-09-16T22:19:29.788Z,99799.34
2022-09-16T22:21:57.184Z,99797.38
2022-09-16T22:24:24.538Z,99799.94
2022-09-16T22:26:52.064Z,99797.84
2022-09-16T22:29:19.658Z,99795.59
2022-09-16T22:31:47.215Z,99796.78
2022-09-16T22:34:14.897Z,99789.19
2022-09-16T22:36:43.286Z,99796.22
2022-09-16T22:39:11.897Z,99794.78
2022-09-16T22:41:39.250Z,99800.22
2022-09-16T22:44:06.645Z,99807.25
2022-09-16T22:46:35.365Z,99795.69
2022-09-16T22:49:02.765Z,99802.75
2022-09-16T22:51:30.925Z,99801.16
2022-09-16T22:53:58.450Z,99795.53
2022-09-16T22:56:27.075Z,99803.16
2022-09-16T22:58:54.891Z,99805.13
2022-09-16T23:01:23.506Z,99795.78
2022-09-16T23:03:54.550Z,99797.22
2022-09-16T23:06:22.148Z,99801.59
2022-09-16T23:08:49.986Z,99800.06
2022-09-16T23:11:19.896Z,99802.13
2022-09-16T23:13:48.355Z,99809.50
2022-09-16T23:16:17.422Z,99802.03
2022-09-16T23:18:45.040Z,99800.06
2022-09-16T23:21:13.421Z,99794.56
2022-09-16T23:23:42.338Z,99795.44
2022-09-16T23:26:12.036Z,99796.59
2022-09-16T23:28:39.574Z,99790.13
2022-09-16T23:31:07.552Z,99793.28
2022-09-16T23:33:34.888Z,99797.66
2022-09-16T23:36:02.671Z,99801.94
2022-09-16T23:38:30.053Z,99809.81
2022-09-16T23:40:59.307Z,99806.63
2022-09-16T23:43:27.254Z,99814.63
2022-09-16T23:45:54.816Z,99819.59
2022-09-16T23:48:22.287Z,99812.09
2022-09-16T23:50:49.589Z,99820.84
2022-09-16T23:53:16.986Z,99826.09
2022-09-16T23:55:44.468Z,99828.78
2022-09-16T23:58:11.890Z,99828.88
